sensor_id;sensor_type;location;lat;lon;timestamp;temperature;humidity
19538;DHT22;9914;51.008;4.300;2022-12-13T00:01:38;-1.60;99.90
19538;DHT22;9914;51.008;4.300;2022-12-13T00:04:05;-1.60;99.90
19538;DHT22;9914;51.008;4.300;2022-12-13T00:06:32;-1.50;99.90
19538;DHT22;9914;51.008;4.300;2022-12-13T00:08:59;-1.50;99.90
19538;DHT22;9914;51.008;4.300;2022-12-13T00:11:24;-1.60;99.90
19538;DHT22;9914;51.008;4.300;2022-12-13T00:13:50;-1.60;99.90
19538;DHT22;9914;51.008;4.300;2022-12-13T00:16:20;-1.50;99.90
19538;DHT22;9914;51.008;4.300;2022-12-13T00:18:47;-1.40;99.90
19538;DHT22;9914;51.008;4.300;2022-12-13T00:21:17;-1.40;99.90
19538;DHT22;9914;51.008;4.300;2022-12-13T00:23:43;-1.30;99.90
19538;DHT22;9914;51.008;4.300;2022-12-13T00:26:12;-1.40;99.90
19538;DHT22;9914;51.008;4.300;2022-12-13T00:28:39;-1.60;99.90
19538;DHT22;9914;51.008;4.300;2022-12-13T00:31:05;-1.60;99.90
19538;DHT22;9914;51.008;4.300;2022-12-13T00:33:31;-1.50;99.90
19538;DHT22;9914;51.008;4.300;2022-12-13T00:35:57;-1.50;99.90
19538;DHT22;9914;51.008;4.300;2022-12-13T00:38:23;-1.60;99.90
19538;DHT22;9914;51.008;4.300;2022-12-13T00:40:49;-1.60;99.90
19538;DHT22;9914;51.008;4.300;2022-12-13T00:43:16;-1.50;99.90
19538;DHT22;9914;51.008;4.300;2022-12-13T00:45:42;-1.50;99.90
19538;DHT22;9914;51.008;4.300;2022-12-13T00:48:08;-1.60;99.90
19538;DHT22;9914;51.008;4.300;2022-12-13T00:50:33;-1.60;99.90
19538;DHT22;9914;51.008;4.300;2022-12-13T00:53:00;-1.80;99.90
19538;DHT22;9914;51.008;4.300;2022-12-13T00:55:26;-1.90;99.90
19538;DHT22;9914;51.008;4.300;2022-12-13T00:57:51;-1.90;99.90
19538;DHT22;9914;51.008;4.300;2022-12-13T01:00:17;-1.90;99.90
19538;DHT22;9914;51.008;4.300;2022-12-13T01:02:43;-2.00;99.90
19538;DHT22;9914;51.008;4.300;2022-12-13T01:05:10;-2.00;99.90
19538;DHT22;9914;51.008;4.300;2022-12-13T01:07:37;-2.00;99.90
19538;DHT22;9914;51.008;4.300;2022-12-13T01:10:07;-2.10;99.90
19538;DHT22;9914;51.008;4.300;2022-12-13T01:12:33;-2.10;99.90
19538;DHT22;9914;51.008;4.300;2022-12-13T01:14:59;-1.90;99.90
19538;DHT22;9914;51.008;4.300;2022-12-13T01:17:25;-1.80;99.90
19538;DHT22;9914;51.008;4.300;2022-12-13T01:19:50;-1.90;99.90
19538;DHT22;9914;51.008;4.300;2022-12-13T01:22:16;-1.90;99.90
19538;DHT22;9914;51.008;4.300;2022-12-13T01:24:42;-1.80;99.90
19538;DHT22;9914;51.008;4.300;2022-12-13T01:27:08;-1.70;99.90
19538;DHT22;9914;51.008;4.300;2022-12-13T01:29:33;-1.60;99.90
19538;DHT22;9914;51.008;4.300;2022-12-13T01:31:59;-1.80;99.90
19538;DHT22;9914;51.008;4.300;2022-12-13T01:34:24;-1.80;99.90
19538;DHT22;9914;51.008;4.300;2022-12-13T01:36:52;-1.90;99.90
19538;DHT22;9914;51.008;4.300;2022-12-13T01:39:19;-1.90;99.90
19538;DHT22;9914;51.008;4.300;2022-12-13T01:41:50;-2.00;99.90
19538;DHT22;9914;51.008;4.300;2022-12-13T01:47:19;-2.00;99.90
19538;DHT22;9914;51.008;4.300;2022-12-13T01:49:46;-2.00;99.90
19538;DHT22;9914;51.008;4.300;2022-12-13T01:52:13;-1.90;99.90
19538;DHT22;9914;51.008;4.300;2022-12-13T01:54:43;-2.10;99.90
19538;DHT22;9914;51.008;4.300;2022-12-13T01:57:11;-2.20;99.90
19538;DHT22;9914;51.008;4.300;2022-12-13T01:59:38;-2.50;99.90
19538;DHT22;9914;51.008;4.300;2022-12-13T02:02:07;-2.50;99.90
19538;DHT22;9914;51.008;4.300;2022-12-13T02:04:51;-2.50;99.90
19538;DHT22;9914;51.008;4.300;2022-12-13T02:07:23;-2.40;99.90
19538;DHT22;9914;51.008;4.300;2022-12-13T02:09:55;-2.30;99.90
19538;DHT22;9914;51.008;4.300;2022-12-13T02:12:22;-2.40;99.90
19538;DHT22;9914;51.008;4.300;2022-12-13T02:14:48;-2.30;99.90
19538;DHT22;9914;51.008;4.300;2022-12-13T02:20:30;-2.30;99.90
19538;DHT22;9914;51.008;4.300;2022-12-13T02:23:09;-2.20;99.90
19538;DHT22;9914;51.008;4.300;2022-12-13T02:31:30;-2.20;99.90
19538;DHT22;9914;51.008;4.300;2022-12-13T02:34:15;-2.30;99.90
19538;DHT22;9914;51.008;4.300;2022-12-13T02:36:59;-2.20;99.90
19538;DHT22;9914;51.008;4.300;2022-12-13T02:39:32;-2.20;99.90
19538;DHT22;9914;51.008;4.300;2022-12-13T02:42:12;-2.30;99.90
19538;DHT22;9914;51.008;4.300;2022-12-13T02:45:07;-2.30;99.90
19538;DHT22;9914;51.008;4.300;2022-12-13T02:47:39;-2.40;99.90
19538;DHT22;9914;51.008;4.300;2022-12-13T02:50:08;-2.40;99.90
19538;DHT22;9914;51.008;4.300;2022-12-13T02:52:34;-2.40;99.90
19538;DHT22;9914;51.008;4.300;2022-12-13T02:55:06;-2.30;99.90
19538;DHT22;9914;51.008;4.300;2022-12-13T02:57:36;-2.30;99.90
19538;DHT22;9914;51.008;4.300;2022-12-13T03:05:20;-2.40;99.90
19538;DHT22;9914;51.008;4.300;2022-12-13T03:10:47;-2.40;99.90
19538;DHT22;9914;51.008;4.300;2022-12-13T03:13:24;-2.50;99.90
19538;DHT22;9914;51.008;4.300;2022-12-13T03:18:33;-2.30;99.90
19538;DHT22;9914;51.008;4.300;2022-12-13T03:21:01;-2.30;99.90
19538;DHT22;9914;51.008;4.300;2022-12-13T03:23:27;-2.20;99.90
19538;DHT22;9914;51.008;4.300;2022-12-13T03:25:58;-2.30;99.90
19538;DHT22;9914;51.008;4.300;2022-12-13T03:28:25;-2.30;99.90
19538;DHT22;9914;51.008;4.300;2022-12-13T03:30:50;-2.30;99.90
19538;DHT22;9914;51.008;4.300;2022-12-13T03:33:16;-2.30;99.90
19538;DHT22;9914;51.008;4.300;2022-12-13T03:35:43;-2.50;99.90
19538;DHT22;9914;51.008;4.300;2022-12-13T03:38:09;-2.50;99.90
19538;DHT22;9914;51.008;4.300;2022-12-13T03:40:35;-2.40;99.90
19538;DHT22;9914;51.008;4.300;2022-12-13T03:43:01;-2.30;99.90
19538;DHT22;9914;51.008;4.300;2022-12-13T03:45:27;-2.30;99.90
19538;DHT22;9914;51.008;4.300;2022-12-13T03:47:52;-2.30;99.90
19538;DHT22;9914;51.008;4.300;2022-12-13T03:50:18;-2.50;99.90
19538;DHT22;9914;51.008;4.300;2022-12-13T03:52:44;-2.60;99.90
19538;DHT22;9914;51.008;4.300;2022-12-13T03:55:12;-2.70;99.90
19538;DHT22;9914;51.008;4.300;2022-12-13T03:57:38;-2.80;99.90
19538;DHT22;9914;51.008;4.300;2022-12-13T04:00:04;-2.60;99.90
19538;DHT22;9914;51.008;4.300;2022-12-13T04:02:30;-2.50;99.90
19538;DHT22;9914;51.008;4.300;2022-12-13T04:04:56;-2.50;99.90
19538;DHT22;9914;51.008;4.300;2022-12-13T04:07:21;-2.50;99.90
19538;DHT22;9914;51.008;4.300;2022-12-13T04:09:47;-2.50;99.90
19538;DHT22;9914;51.008;4.300;2022-12-13T04:12:12;-2.40;99.90
19538;DHT22;9914;51.008;4.300;2022-12-13T04:14:56;-2.40;99.90
19538;DHT22;9914;51.008;4.300;2022-12-13T04:17:22;-2.50;99.90
19538;DHT22;9914;51.008;4.300;2022-12-13T04:19:47;-2.50;99.90
19538;DHT22;9914;51.008;4.300;2022-12-13T04:22:13;-2.50;99.90
19538;DHT22;9914;51.008;4.300;2022-12-13T04:24:39;-2.50;99.90
19538;DHT22;9914;51.008;4.300;2022-12-13T04:27:04;-2.50;99.90
19538;DHT22;9914;51.008;4.300;2022-12-13T04:29:30;-2.50;99.90
19538;DHT22;9914;51.008;4.300;2022-12-13T04:31:56;-2.60;99.90
19538;DHT22;9914;51.008;4.300;2022-12-13T04:34:21;-2.60;99.90
19538;DHT22;9914;51.008;4.300;2022-12-13T04:36:47;-2.50;99.90
19538;DHT22;9914;51.008;4.300;2022-12-13T04:39:12;-2.60;99.90
19538;DHT22;9914;51.008;4.300;2022-12-13T04:41:38;-2.60;99.90
19538;DHT22;9914;51.008;4.300;2022-12-13T04:44:06;-2.60;99.90
19538;DHT22;9914;51.008;4.300;2022-12-13T04:46:32;-2.50;99.90
19538;DHT22;9914;51.008;4.300;2022-12-13T04:48:57;-2.60;99.90
19538;DHT22;9914;51.008;4.300;2022-12-13T04:51:23;-2.60;99.90
19538;DHT22;9914;51.008;4.300;2022-12-13T04:53:49;-2.50;99.90
19538;DHT22;9914;51.008;4.300;2022-12-13T04:56:15;-2.40;99.90
19538;DHT22;9914;51.008;4.300;2022-12-13T04:58:40;-2.40;99.90
19538;DHT22;9914;51.008;4.300;2022-12-13T05:01:07;-2.50;99.90
19538;DHT22;9914;51.008;4.300;2022-12-13T05:03:33;-2.60;99.90
19538;DHT22;9914;51.008;4.300;2022-12-13T05:06:03;-2.70;99.90
19538;DHT22;9914;51.008;4.300;2022-12-13T05:08:29;-2.70;99.90
19538;DHT22;9914;51.008;4.300;2022-12-13T05:10:54;-2.70;99.90
19538;DHT22;9914;51.008;4.300;2022-12-13T05:13:20;-2.70;99.90
19538;DHT22;9914;51.008;4.300;2022-12-13T05:15:46;-2.70;99.90
19538;DHT22;9914;51.008;4.300;2022-12-13T05:18:11;-2.80;99.90
19538;DHT22;9914;51.008;4.300;2022-12-13T05:20:38;-2.70;99.90
19538;DHT22;9914;51.008;4.300;2022-12-13T05:23:03;-2.50;99.90
19538;DHT22;9914;51.008;4.300;2022-12-13T05:25:29;-2.60;99.90
19538;DHT22;9914;51.008;4.300;2022-12-13T05:27:55;-2.50;99.90
19538;DHT22;9914;51.008;4.300;2022-12-13T05:30:21;-2.60;99.90
19538;DHT22;9914;51.008;4.300;2022-12-13T05:32:47;-2.50;99.90
19538;DHT22;9914;51.008;4.300;2022-12-13T05:35:14;-2.60;99.90
19538;DHT22;9914;51.008;4.300;2022-12-13T05:37:40;-2.60;99.90
19538;DHT22;9914;51.008;4.300;2022-12-13T05:40:07;-2.60;99.90
19538;DHT22;9914;51.008;4.300;2022-12-13T05:42:32;-2.50;99.90
19538;DHT22;9914;51.008;4.300;2022-12-13T05:44:58;-2.60;99.90
19538;DHT22;9914;51.008;4.300;2022-12-13T05:47:24;-2.70;99.90
19538;DHT22;9914;51.008;4.300;2022-12-13T05:49:49;-2.60;99.90
19538;DHT22;9914;51.008;4.300;2022-12-13T05:52:20;-2.60;99.90
19538;DHT22;9914;51.008;4.300;2022-12-13T05:54:46;-2.60;99.90
19538;DHT22;9914;51.008;4.300;2022-12-13T05:57:12;-2.70;99.90
19538;DHT22;9914;51.008;4.300;2022-12-13T05:59:38;-2.60;99.90
19538;DHT22;9914;51.008;4.300;2022-12-13T06:02:03;-2.70;99.90
19538;DHT22;9914;51.008;4.300;2022-12-13T06:04:29;-2.80;99.90
19538;DHT22;9914;51.008;4.300;2022-12-13T06:06:54;-2.70;99.90
19538;DHT22;9914;51.008;4.300;2022-12-13T06:09:20;-2.80;99.90
19538;DHT22;9914;51.008;4.300;2022-12-13T06:11:47;-2.80;99.90
19538;DHT22;9914;51.008;4.300;2022-12-13T06:14:13;-2.90;99.90
19538;DHT22;9914;51.008;4.300;2022-12-13T06:16:39;-3.00;99.90
19538;DHT22;9914;51.008;4.300;2022-12-13T06:19:05;-3.00;99.90
19538;DHT22;9914;51.008;4.300;2022-12-13T06:21:31;-2.90;99.90
19538;DHT22;9914;51.008;4.300;2022-12-13T06:23:57;-3.00;99.90
19538;DHT22;9914;51.008;4.300;2022-12-13T06:26:23;-2.90;99.90
19538;DHT22;9914;51.008;4.300;2022-12-13T06:28:48;-2.80;99.90
19538;DHT22;9914;51.008;4.300;2022-12-13T06:31:14;-2.70;99.90
19538;DHT22;9914;51.008;4.300;2022-12-13T06:33:40;-2.70;99.90
19538;DHT22;9914;51.008;4.300;2022-12-13T06:36:06;-2.90;99.90
19538;DHT22;9914;51.008;4.300;2022-12-13T06:38:32;-2.80;99.90
19538;DHT22;9914;51.008;4.300;2022-12-13T06:41:14;-2.90;99.90
19538;DHT22;9914;51.008;4.300;2022-12-13T06:43:42;-3.00;99.90
19538;DHT22;9914;51.008;4.300;2022-12-13T06:46:08;-2.90;99.90
19538;DHT22;9914;51.008;4.300;2022-12-13T06:48:34;-2.90;99.90
19538;DHT22;9914;51.008;4.300;2022-12-13T06:51:01;-2.90;99.90
19538;DHT22;9914;51.008;4.300;2022-12-13T06:53:27;-3.00;99.90
19538;DHT22;9914;51.008;4.300;2022-12-13T06:55:53;-3.00;99.90
19538;DHT22;9914;51.008;4.300;2022-12-13T06:58:18;-3.10;99.90
19538;DHT22;9914;51.008;4.300;2022-12-13T07:00:44;-3.10;99.90
19538;DHT22;9914;51.008;4.300;2022-12-13T07:03:11;-3.10;99.90
19538;DHT22;9914;51.008;4.300;2022-12-13T07:05:37;-3.10;99.90
19538;DHT22;9914;51.008;4.300;2022-12-13T07:08:03;-3.00;99.90
19538;DHT22;9914;51.008;4.300;2022-12-13T07:10:29;-3.10;99.90
19538;DHT22;9914;51.008;4.300;2022-12-13T07:12:55;-3.00;99.90
19538;DHT22;9914;51.008;4.300;2022-12-13T07:15:20;-3.00;99.90
19538;DHT22;9914;51.008;4.300;2022-12-13T07:17:50;-3.00;99.90
19538;DHT22;9914;51.008;4.300;2022-12-13T07:20:16;-3.00;99.90
19538;DHT22;9914;51.008;4.300;2022-12-13T07:22:44;-3.00;99.90
19538;DHT22;9914;51.008;4.300;2022-12-13T07:25:11;-3.00;99.90
19538;DHT22;9914;51.008;4.300;2022-12-13T07:27:37;-3.10;99.90
19538;DHT22;9914;51.008;4.300;2022-12-13T07:30:03;-3.20;99.90
19538;DHT22;9914;51.008;4.300;2022-12-13T07:32:28;-3.20;99.90
19538;DHT22;9914;51.008;4.300;2022-12-13T07:34:54;-3.20;99.90
19538;DHT22;9914;51.008;4.300;2022-12-13T07:37:20;-3.10;99.90
19538;DHT22;9914;51.008;4.300;2022-12-13T07:39:45;-3.20;99.90
19538;DHT22;9914;51.008;4.300;2022-12-13T07:42:11;-3.20;99.90
19538;DHT22;9914;51.008;4.300;2022-12-13T07:44:36;-3.30;99.90
19538;DHT22;9914;51.008;4.300;2022-12-13T07:47:02;-3.50;99.90
19538;DHT22;9914;51.008;4.300;2022-12-13T07:49:28;-3.50;99.90
19538;DHT22;9914;51.008;4.300;2022-12-13T07:51:53;-3.40;99.90
19538;DHT22;9914;51.008;4.300;2022-12-13T07:54:19;-3.10;99.90
19538;DHT22;9914;51.008;4.300;2022-12-13T07:56:44;-3.10;99.90
19538;DHT22;9914;51.008;4.300;2022-12-13T07:59:10;-3.00;99.90
19538;DHT22;9914;51.008;4.300;2022-12-13T08:01:36;-3.00;99.90
19538;DHT22;9914;51.008;4.300;2022-12-13T08:04:02;-2.90;99.90
19538;DHT22;9914;51.008;4.300;2022-12-13T08:06:28;-2.90;99.90
19538;DHT22;9914;51.008;4.300;2022-12-13T08:08:56;-2.70;99.90
19538;DHT22;9914;51.008;4.300;2022-12-13T08:11:22;-2.80;99.90
19538;DHT22;9914;51.008;4.300;2022-12-13T08:13:48;-2.90;99.90
19538;DHT22;9914;51.008;4.300;2022-12-13T08:16:13;-2.90;99.90
19538;DHT22;9914;51.008;4.300;2022-12-13T08:18:43;-3.00;99.90
19538;DHT22;9914;51.008;4.300;2022-12-13T08:21:09;-2.90;99.90
19538;DHT22;9914;51.008;4.300;2022-12-13T08:23:35;-2.70;99.90
19538;DHT22;9914;51.008;4.300;2022-12-13T08:26:02;-2.50;99.90
19538;DHT22;9914;51.008;4.300;2022-12-13T08:28:30;-2.40;99.90
19538;DHT22;9914;51.008;4.300;2022-12-13T08:31:05;-2.40;99.90
19538;DHT22;9914;51.008;4.300;2022-12-13T08:33:33;-2.30;99.90
19538;DHT22;9914;51.008;4.300;2022-12-13T08:36:07;-2.30;99.90
19538;DHT22;9914;51.008;4.300;2022-12-13T08:38:32;-2.40;99.90
19538;DHT22;9914;51.008;4.300;2022-12-13T08:40:58;-2.30;99.90
19538;DHT22;9914;51.008;4.300;2022-12-13T08:43:24;-2.30;99.90
19538;DHT22;9914;51.008;4.300;2022-12-13T08:45:49;-2.20;99.90
19538;DHT22;9914;51.008;4.300;2022-12-13T08:48:15;-2.10;99.90
19538;DHT22;9914;51.008;4.300;2022-12-13T08:50:40;-2.30;99.90
19538;DHT22;9914;51.008;4.300;2022-12-13T08:53:06;-2.20;99.90
19538;DHT22;9914;51.008;4.300;2022-12-13T08:55:32;-2.00;99.90
19538;DHT22;9914;51.008;4.300;2022-12-13T08:57:57;-2.00;99.90
19538;DHT22;9914;51.008;4.300;2022-12-13T09:00:23;-1.90;99.90
19538;DHT22;9914;51.008;4.300;2022-12-13T09:02:49;-1.70;99.90
19538;DHT22;9914;51.008;4.300;2022-12-13T09:05:14;-1.60;99.90
19538;DHT22;9914;51.008;4.300;2022-12-13T09:07:41;-1.50;99.90
19538;DHT22;9914;51.008;4.300;2022-12-13T09:10:09;-1.60;99.90
19538;DHT22;9914;51.008;4.300;2022-12-13T09:12:39;-1.50;99.90
19538;DHT22;9914;51.008;4.300;2022-12-13T09:15:04;-1.40;99.90
19538;DHT22;9914;51.008;4.300;2022-12-13T09:17:30;-1.60;99.90
19538;DHT22;9914;51.008;4.300;2022-12-13T09:19:57;-1.40;99.90
19538;DHT22;9914;51.008;4.300;2022-12-13T09:22:22;-1.40;99.90
19538;DHT22;9914;51.008;4.300;2022-12-13T09:24:48;-1.40;99.90
19538;DHT22;9914;51.008;4.300;2022-12-13T09:27:13;-1.30;99.90
19538;DHT22;9914;51.008;4.300;2022-12-13T09:29:39;-1.20;99.90
19538;DHT22;9914;51.008;4.300;2022-12-13T09:32:05;-1.00;99.90
19538;DHT22;9914;51.008;4.300;2022-12-13T09:34:30;-1.00;99.90
19538;DHT22;9914;51.008;4.300;2022-12-13T09:36:59;-0.90;99.90
19538;DHT22;9914;51.008;4.300;2022-12-13T09:39:25;-0.80;99.90
19538;DHT22;9914;51.008;4.300;2022-12-13T09:41:53;-0.90;99.90
19538;DHT22;9914;51.008;4.300;2022-12-13T09:44:29;-0.90;99.90
19538;DHT22;9914;51.008;4.300;2022-12-13T09:46:57;-0.70;99.90
19538;DHT22;9914;51.008;4.300;2022-12-13T09:49:34;-0.60;99.90
19538;DHT22;9914;51.008;4.300;2022-12-13T09:52:04;-0.60;99.90
19538;DHT22;9914;51.008;4.300;2022-12-13T09:54:30;-0.60;99.90
19538;DHT22;9914;51.008;4.300;2022-12-13T09:56:57;-0.50;99.90
19538;DHT22;9914;51.008;4.300;2022-12-13T09:59:27;-0.40;99.90
19538;DHT22;9914;51.008;4.300;2022-12-13T10:01:54;-0.50;99.90
19538;DHT22;9914;51.008;4.300;2022-12-13T10:04:20;-0.70;99.90
19538;DHT22;9914;51.008;4.300;2022-12-13T10:06:46;-0.80;99.90
19538;DHT22;9914;51.008;4.300;2022-12-13T10:09:15;-0.70;99.90
19538;DHT22;9914;51.008;4.300;2022-12-13T10:11:48;-0.60;99.90
19538;DHT22;9914;51.008;4.300;2022-12-13T10:14:20;-0.60;99.90
19538;DHT22;9914;51.008;4.300;2022-12-13T10:16:53;-0.70;99.90
19538;DHT22;9914;51.008;4.300;2022-12-13T10:19:38;-0.70;99.90
19538;DHT22;9914;51.008;4.300;2022-12-13T10:22:07;-0.70;99.90
19538;DHT22;9914;51.008;4.300;2022-12-13T10:24:54;-0.70;99.90
19538;DHT22;9914;51.008;4.300;2022-12-13T10:27:36;-0.50;99.90
19538;DHT22;9914;51.008;4.300;2022-12-13T10:32:59;-0.50;99.90
19538;DHT22;9914;51.008;4.300;2022-12-13T10:35:32;-0.40;99.90
19538;DHT22;9914;51.008;4.300;2022-12-13T10:38:47;-0.30;99.90
19538;DHT22;9914;51.008;4.300;2022-12-13T10:40:48;-0.10;99.90
19538;DHT22;9914;51.008;4.300;2022-12-13T10:43:22;-0.10;99.90
19538;DHT22;9914;51.008;4.300;2022-12-13T10:51:10;-0.10;99.90
19538;DHT22;9914;51.008;4.300;2022-12-13T10:53:53;0.00;99.90
19538;DHT22;9914;51.008;4.300;2022-12-13T10:56:22;0.20;99.90
19538;DHT22;9914;51.008;4.300;2022-12-13T10:59:35;0.40;99.90
19538;DHT22;9914;51.008;4.300;2022-12-13T11:04:53;0.50;99.90
19538;DHT22;9914;51.008;4.300;2022-12-13T11:07:30;0.50;99.90
19538;DHT22;9914;51.008;4.300;2022-12-13T11:10:01;0.50;99.90
19538;DHT22;9914;51.008;4.300;2022-12-13T11:12:39;0.50;99.90
19538;DHT22;9914;51.008;4.300;2022-12-13T11:15:06;0.40;99.90
19538;DHT22;9914;51.008;4.300;2022-12-13T11:17:50;0.40;99.90
19538;DHT22;9914;51.008;4.300;2022-12-13T11:20:22;0.50;99.90
19538;DHT22;9914;51.008;4.300;2022-12-13T11:23:42;0.50;99.90
19538;DHT22;9914;51.008;4.300;2022-12-13T11:25:47;0.60;99.90
19538;DHT22;9914;51.008;4.300;2022-12-13T11:31:47;0.80;99.90
19538;DHT22;9914;51.008;4.300;2022-12-13T11:39:42;1.20;99.90
19538;DHT22;9914;51.008;4.300;2022-12-13T11:42:15;1.20;99.90
19538;DHT22;9914;51.008;4.300;2022-12-13T11:50:38;1.40;99.90
19538;DHT22;9914;51.008;4.300;2022-12-13T11:56:14;1.70;99.90
19538;DHT22;9914;51.008;4.300;2022-12-13T11:59:08;1.70;99.90
19538;DHT22;9914;51.008;4.300;2022-12-13T12:01:46;1.90;99.90
19538;DHT22;9914;51.008;4.300;2022-12-13T12:04:40;1.90;99.90
19538;DHT22;9914;51.008;4.300;2022-12-13T12:07:13;2.00;99.90
19538;DHT22;9914;51.008;4.300;2022-12-13T12:09:46;2.10;99.90
19538;DHT22;9914;51.008;4.300;2022-12-13T12:12:22;2.20;99.90
19538;DHT22;9914;51.008;4.300;2022-12-13T12:17:21;2.30;99.90
19538;DHT22;9914;51.008;4.300;2022-12-13T12:19:51;2.30;99.90
19538;DHT22;9914;51.008;4.300;2022-12-13T12:27:54;2.20;99.90
19538;DHT22;9914;51.008;4.300;2022-12-13T12:33:10;2.20;99.90
19538;DHT22;9914;51.008;4.300;2022-12-13T12:35:50;2.10;99.90
19538;DHT22;9914;51.008;4.300;2022-12-13T12:43:31;2.00;99.90
19538;DHT22;9914;51.008;4.300;2022-12-13T12:49:08;2.10;99.90
19538;DHT22;9914;51.008;4.300;2022-12-13T13:05:14;1.80;99.90
19538;DHT22;9914;51.008;4.300;2022-12-13T13:07:54;1.80;99.90
19538;DHT22;9914;51.008;4.300;2022-12-13T13:10:21;1.90;99.90
19538;DHT22;9914;51.008;4.300;2022-12-13T13:12:47;1.80;99.90
19538;DHT22;9914;51.008;4.300;2022-12-13T13:18:00;2.00;99.90
19538;DHT22;9914;51.008;4.300;2022-12-13T13:20:27;1.90;99.90
19538;DHT22;9914;51.008;4.300;2022-12-13T13:22:56;2.00;99.90
19538;DHT22;9914;51.008;4.300;2022-12-13T13:25:31;1.90;99.90
19538;DHT22;9914;51.008;4.300;2022-12-13T13:28:16;1.90;99.90
19538;DHT22;9914;51.008;4.300;2022-12-13T13:31:18;1.90;99.90
19538;DHT22;9914;51.008;4.300;2022-12-13T13:33:44;1.90;99.90
19538;DHT22;9914;51.008;4.300;2022-12-13T13:39:16;2.00;99.90
19538;DHT22;9914;51.008;4.300;2022-12-13T13:52:31;2.10;99.90
19538;DHT22;9914;51.008;4.300;2022-12-13T13:55:23;2.10;99.90
19538;DHT22;9914;51.008;4.300;2022-12-13T13:58:13;2.20;99.90
19538;DHT22;9914;51.008;4.300;2022-12-13T14:12:25;2.50;99.90
19538;DHT22;9914;51.008;4.300;2022-12-13T14:23:51;2.10;99.90
19538;DHT22;9914;51.008;4.300;2022-12-13T14:29:02;2.10;99.90
19538;DHT22;9914;51.008;4.300;2022-12-13T14:34:18;2.20;99.90
19538;DHT22;9914;51.008;4.300;2022-12-13T14:36:53;2.10;99.90
19538;DHT22;9914;51.008;4.300;2022-12-13T14:39:19;2.20;99.90
19538;DHT22;9914;51.008;4.300;2022-12-13T14:41:56;2.10;99.90
19538;DHT22;9914;51.008;4.300;2022-12-13T14:44:26;2.00;99.90
19538;DHT22;9914;51.008;4.300;2022-12-13T14:49:22;2.10;99.90
19538;DHT22;9914;51.008;4.300;2022-12-13T14:51:52;2.10;99.90
19538;DHT22;9914;51.008;4.300;2022-12-13T14:54:25;2.10;99.90
19538;DHT22;9914;51.008;4.300;2022-12-13T14:57:01;2.00;99.90
19538;DHT22;9914;51.008;4.300;2022-12-13T14:59:28;2.00;99.90
19538;DHT22;9914;51.008;4.300;2022-12-13T15:02:02;1.90;99.90
19538;DHT22;9914;51.008;4.300;2022-12-13T15:04:29;1.70;99.90
19538;DHT22;9914;51.008;4.300;2022-12-13T15:07:03;1.50;99.90
19538;DHT22;9914;51.008;4.300;2022-12-13T15:09:34;1.60;99.90
19538;DHT22;9914;51.008;4.300;2022-12-13T15:12:00;1.50;99.90
19538;DHT22;9914;51.008;4.300;2022-12-13T15:14:26;1.40;99.90
19538;DHT22;9914;51.008;4.300;2022-12-13T15:16:55;1.30;99.90
19538;DHT22;9914;51.008;4.300;2022-12-13T15:19:25;1.20;99.90
19538;DHT22;9914;51.008;4.300;2022-12-13T15:21:58;1.30;99.90
19538;DHT22;9914;51.008;4.300;2022-12-13T15:24:38;1.20;99.90
19538;DHT22;9914;51.008;4.300;2022-12-13T15:27:12;1.20;99.90
19538;DHT22;9914;51.008;4.300;2022-12-13T15:29:38;1.10;99.90
19538;DHT22;9914;51.008;4.300;2022-12-13T15:32:11;1.20;99.90
19538;DHT22;9914;51.008;4.300;2022-12-13T15:34:38;1.10;99.90
19538;DHT22;9914;51.008;4.300;2022-12-13T15:37:14;1.00;99.90
19538;DHT22;9914;51.008;4.300;2022-12-13T15:39:43;0.90;99.90
19538;DHT22;9914;51.008;4.300;2022-12-13T15:42:29;0.90;99.90
19538;DHT22;9914;51.008;4.300;2022-12-13T15:44:58;1.00;99.90
19538;DHT22;9914;51.008;4.300;2022-12-13T15:47:25;0.90;99.90
19538;DHT22;9914;51.008;4.300;2022-12-13T15:55:02;0.70;99.90
19538;DHT22;9914;51.008;4.300;2022-12-13T16:03:06;0.70;99.90
19538;DHT22;9914;51.008;4.300;2022-12-13T16:05:38;0.60;99.90
19538;DHT22;9914;51.008;4.300;2022-12-13T16:10:52;0.60;99.90
19538;DHT22;9914;51.008;4.300;2022-12-13T16:13:29;0.60;99.90
19538;DHT22;9914;51.008;4.300;2022-12-13T16:15:57;0.70;99.90
19538;DHT22;9914;51.008;4.300;2022-12-13T16:18:29;0.70;99.90
19538;DHT22;9914;51.008;4.300;2022-12-13T16:20:55;0.70;99.90
19538;DHT22;9914;51.008;4.300;2022-12-13T16:23:21;0.70;99.90
19538;DHT22;9914;51.008;4.300;2022-12-13T16:25:47;0.60;99.90
19538;DHT22;9914;51.008;4.300;2022-12-13T16:28:13;0.60;99.90
19538;DHT22;9914;51.008;4.300;2022-12-13T16:33:24;0.50;99.90
19538;DHT22;9914;51.008;4.300;2022-12-13T16:35:50;0.60;99.90
19538;DHT22;9914;51.008;4.300;2022-12-13T16:38:17;0.60;99.90
19538;DHT22;9914;51.008;4.300;2022-12-13T16:40:44;0.60;99.90
19538;DHT22;9914;51.008;4.300;2022-12-13T16:43:16;0.60;99.90
19538;DHT22;9914;51.008;4.300;2022-12-13T16:45:44;0.60;99.90
19538;DHT22;9914;51.008;4.300;2022-12-13T16:48:12;0.40;99.90
19538;DHT22;9914;51.008;4.300;2022-12-13T16:50:42;0.40;99.90
19538;DHT22;9914;51.008;4.300;2022-12-13T16:53:08;0.40;99.90
19538;DHT22;9914;51.008;4.300;2022-12-13T16:55:33;0.50;99.90
19538;DHT22;9914;51.008;4.300;2022-12-13T16:58:02;0.50;99.90
19538;DHT22;9914;51.008;4.300;2022-12-13T17:00:28;0.60;99.90
19538;DHT22;9914;51.008;4.300;2022-12-13T17:02:55;0.50;99.90
19538;DHT22;9914;51.008;4.300;2022-12-13T17:05:22;0.50;99.90
19538;DHT22;9914;51.008;4.300;2022-12-13T17:07:48;0.40;99.90
19538;DHT22;9914;51.008;4.300;2022-12-13T17:10:14;0.40;99.90
19538;DHT22;9914;51.008;4.300;2022-12-13T17:12:40;0.40;99.90
19538;DHT22;9914;51.008;4.300;2022-12-13T17:15:08;0.30;99.90
19538;DHT22;9914;51.008;4.300;2022-12-13T17:17:42;0.40;99.90
19538;DHT22;9914;51.008;4.300;2022-12-13T17:20:10;0.30;99.90
19538;DHT22;9914;51.008;4.300;2022-12-13T17:22:36;0.40;99.90
19538;DHT22;9914;51.008;4.300;2022-12-13T17:25:03;0.30;99.90
19538;DHT22;9914;51.008;4.300;2022-12-13T17:27:31;0.40;99.90
19538;DHT22;9914;51.008;4.300;2022-12-13T17:29:57;0.40;99.90
19538;DHT22;9914;51.008;4.300;2022-12-13T17:32:24;0.40;99.90
19538;DHT22;9914;51.008;4.300;2022-12-13T17:34:50;0.40;99.90
19538;DHT22;9914;51.008;4.300;2022-12-13T17:37:16;0.40;99.90
19538;DHT22;9914;51.008;4.300;2022-12-13T17:39:42;0.50;99.90
19538;DHT22;9914;51.008;4.300;2022-12-13T17:42:07;0.50;99.90
19538;DHT22;9914;51.008;4.300;2022-12-13T17:44:34;0.50;99.90
19538;DHT22;9914;51.008;4.300;2022-12-13T17:47:00;0.40;99.90
19538;DHT22;9914;51.008;4.300;2022-12-13T17:49:25;0.40;99.90
19538;DHT22;9914;51.008;4.300;2022-12-13T17:51:52;0.50;99.90
19538;DHT22;9914;51.008;4.300;2022-12-13T17:54:19;0.50;99.90
19538;DHT22;9914;51.008;4.300;2022-12-13T17:56:46;0.50;99.90
19538;DHT22;9914;51.008;4.300;2022-12-13T17:59:12;0.40;99.90
19538;DHT22;9914;51.008;4.300;2022-12-13T18:01:40;0.40;99.90
19538;DHT22;9914;51.008;4.300;2022-12-13T18:04:06;0.40;99.90
19538;DHT22;9914;51.008;4.300;2022-12-13T18:06:32;0.20;99.90
19538;DHT22;9914;51.008;4.300;2022-12-13T18:08:57;0.30;99.90
19538;DHT22;9914;51.008;4.300;2022-12-13T18:11:23;0.30;99.90
19538;DHT22;9914;51.008;4.300;2022-12-13T18:13:49;0.30;99.90
19538;DHT22;9914;51.008;4.300;2022-12-13T18:16:15;0.30;99.90
19538;DHT22;9914;51.008;4.300;2022-12-13T18:18:42;0.20;99.90
19538;DHT22;9914;51.008;4.300;2022-12-13T18:21:09;0.20;99.90
19538;DHT22;9914;51.008;4.300;2022-12-13T18:23:36;0.20;99.90
19538;DHT22;9914;51.008;4.300;2022-12-13T18:26:04;0.20;99.90
19538;DHT22;9914;51.008;4.300;2022-12-13T18:28:31;0.20;99.90